sensor_id;sensor_type;location;lat;lon;timestamp;pressure;altitude;pressure_sealevel;temperature;humidity
47154;BME280;32907;41.412;2.164;2022-09-09T00:04:35;100476.38;;;28.90;46.33
47154;BME280;32907;41.412;2.164;2022-09-09T00:07:21;100481.91;;;28.90;46.62
47154;BME280;32907;41.412;2.164;2022-09-09T00:15:31;100458.22;;;28.77;46.37
47154;BME280;32907;41.412;2.164;2022-09-09T00:18:21;100477.19;;;28.90;46.91
47154;BME280;32907;41.412;2.164;2022-09-09T00:21:04;100482.22;;;28.88;46.78
47154;BME280;32907;41.412;2.164;2022-09-09T00:23:38;100451.84;;;28.73;46.77
47154;BME280;32907;41.412;2.164;2022-09-09T00:31:31;100282.31;;;27.46;47.40
47154;BME280;32907;41.412;2.164;2022-09-09T00:34:09;100472.31;;;28.87;47.63
47154;BME280;32907;41.412;2.164;2022-09-09T00:36:41;100467.94;;;28.86;47.53
47154;BME280;32907;41.412;2.164;2022-09-09T00:44:33;100460.03;;;28.85;47.83
47154;BME280;32907;41.412;2.164;2022-09-09T00:50:00;100461.63;;;28.86;47.40
47154;BME280;32907;41.412;2.164;2022-09-09T00:55:47;100446.22;;;28.85;48.02
47154;BME280;32907;41.412;2.164;2022-09-09T00:58:16;100440.72;;;28.85;47.87
47154;BME280;32907;41.412;2.164;2022-09-09T01:00:52;100445.06;;;28.86;47.74
47154;BME280;32907;41.412;2.164;2022-09-09T01:03:38;100449.78;;;28.85;48.25
47154;BME280;32907;41.412;2.164;2022-09-09T01:06:16;100453.34;;;28.86;47.64
47154;BME280;32907;41.412;2.164;2022-09-09T01:12:14;100460.38;;;28.83;47.88
47154;BME280;32907;41.412;2.164;2022-09-09T01:14:49;100450.16;;;28.84;48.03
47154;BME280;32907;41.412;2.164;2022-09-09T01:17:44;100452.09;;;28.83;48.08
47154;BME280;32907;41.412;2.164;2022-09-09T01:20:18;100432.03;;;28.70;47.90
47154;BME280;32907;41.412;2.164;2022-09-09T01:28:38;100438.22;;;28.80;47.82
47154;BME280;32907;41.412;2.164;2022-09-09T01:31:16;100368.19;;;28.28;47.82
47154;BME280;32907;41.412;2.164;2022-09-09T01:33:47;100453.97;;;28.79;47.76
47154;BME280;32907;41.412;2.164;2022-09-09T01:36:22;100351.81;;;28.20;47.74
47154;BME280;32907;41.412;2.164;2022-09-09T01:38:53;100386.69;;;28.40;47.68
47154;BME280;32907;41.412;2.164;2022-09-09T01:41:21;100273.91;;;27.67;47.46
47154;BME280;32907;41.412;2.164;2022-09-09T01:44:11;100425.53;;;28.63;47.42
47154;BME280;32907;41.412;2.164;2022-09-09T01:46:42;100430.56;;;28.73;47.29
47154;BME280;32907;41.412;2.164;2022-09-09T01:49:16;100436.28;;;28.80;47.33
47154;BME280;32907;41.412;2.164;2022-09-09T01:51:50;100418.03;;;28.63;47.47
47154;BME280;32907;41.412;2.164;2022-09-09T01:54:28;100445.59;;;28.76;47.63
47154;BME280;32907;41.412;2.164;2022-09-09T02:05:34;100378.91;;;28.30;47.94
47154;BME280;32907;41.412;2.164;2022-09-09T02:08:15;100449.75;;;28.69;47.79
47154;BME280;32907;41.412;2.164;2022-09-09T02:11:05;100414.13;;;28.49;48.03
47154;BME280;32907;41.412;2.164;2022-09-09T02:13:44;100437.13;;;28.68;48.41
47154;BME280;32907;41.412;2.164;2022-09-09T02:16:21;100437.56;;;28.70;47.88
47154;BME280;32907;41.412;2.164;2022-09-09T02:19:25;100445.84;;;28.70;47.72
47154;BME280;32907;41.412;2.164;2022-09-09T02:22:26;100422.13;;;28.54;47.26
47154;BME280;32907;41.412;2.164;2022-09-09T02:24:57;100435.75;;;28.62;47.23
47154;BME280;32907;41.412;2.164;2022-09-09T02:27:29;100420.16;;;28.54;47.62
47154;BME280;32907;41.412;2.164;2022-09-09T02:30:00;100439.44;;;28.66;47.53
47154;BME280;32907;41.412;2.164;2022-09-09T02:32:37;100439.00;;;28.64;47.76
47154;BME280;32907;41.412;2.164;2022-09-09T02:35:12;100303.75;;;27.77;47.67
47154;BME280;32907;41.412;2.164;2022-09-09T02:37:44;100440.13;;;28.63;47.70
47154;BME280;32907;41.412;2.164;2022-09-09T02:40:16;100358.97;;;28.08;47.39
47154;BME280;32907;41.412;2.164;2022-09-09T02:42:49;100265.22;;;27.52;47.59
47154;BME280;32907;41.412;2.164;2022-09-09T02:45:23;100393.69;;;28.37;47.37
47154;BME280;32907;41.412;2.164;2022-09-09T02:48:25;100397.91;;;28.47;47.53
47154;BME280;32907;41.412;2.164;2022-09-09T02:51:08;100422.88;;;28.66;47.55
47154;BME280;32907;41.412;2.164;2022-09-09T02:53:53;100424.03;;;28.65;47.27
47154;BME280;32907;41.412;2.164;2022-09-09T02:56:27;100352.97;;;28.19;47.08
47154;BME280;32907;41.412;2.164;2022-09-09T02:58:58;100429.44;;;28.62;47.16
47154;BME280;32907;41.412;2.164;2022-09-09T03:01:26;100419.28;;;28.50;47.00
47154;BME280;32907;41.412;2.164;2022-09-09T03:03:55;100438.53;;;28.62;46.83
47154;BME280;32907;41.412;2.164;2022-09-09T03:06:23;100410.44;;;28.45;46.38
47154;BME280;32907;41.412;2.164;2022-09-09T03:09:01;100194.78;;;27.11;46.67
47154;BME280;32907;41.412;2.164;2022-09-09T03:11:30;100408.13;;;28.47;46.40
47154;BME280;32907;41.412;2.164;2022-09-09T03:13:58;100321.31;;;27.72;46.20
47154;BME280;32907;41.412;2.164;2022-09-09T03:16:29;100336.75;;;27.89;46.10
47154;BME280;32907;41.412;2.164;2022-09-09T03:18:57;100260.03;;;27.51;45.82
47154;BME280;32907;41.412;2.164;2022-09-09T03:21:25;100440.03;;;28.60;45.24
47154;BME280;32907;41.412;2.164;2022-09-09T03:23:54;100346.59;;;28.02;45.24
47154;BME280;32907;41.412;2.164;2022-09-09T03:26:22;100431.66;;;28.56;45.09
47154;BME280;32907;41.412;2.164;2022-09-09T03:28:50;100428.78;;;28.53;44.73
47154;BME280;32907;41.412;2.164;2022-09-09T03:31:21;100427.56;;;28.50;44.49
47154;BME280;32907;41.412;2.164;2022-09-09T03:33:50;100394.75;;;28.33;44.48
47154;BME280;32907;41.412;2.164;2022-09-09T03:36:20;100333.09;;;27.85;44.29
47154;BME280;32907;41.412;2.164;2022-09-09T03:38:49;100442.03;;;28.47;44.31
47154;BME280;32907;41.412;2.164;2022-09-09T03:41:18;100363.94;;;28.03;44.31
47154;BME280;32907;41.412;2.164;2022-09-09T03:43:47;100302.13;;;27.64;44.17
47154;BME280;32907;41.412;2.164;2022-09-09T03:46:17;100196.25;;;26.96;44.07
47154;BME280;32907;41.412;2.164;2022-09-09T03:48:45;100398.53;;;28.28;43.93
47154;BME280;32907;41.412;2.164;2022-09-09T03:51:13;100429.66;;;28.41;43.17
47154;BME280;32907;41.412;2.164;2022-09-09T03:53:42;100417.63;;;28.33;43.55
47154;BME280;32907;41.412;2.164;2022-09-09T03:56:10;100247.84;;;27.24;43.81
47154;BME280;32907;41.412;2.164;2022-09-09T03:58:38;100421.63;;;28.36;43.58
47154;BME280;32907;41.412;2.164;2022-09-09T04:01:10;100419.59;;;28.33;43.48
47154;BME280;32907;41.412;2.164;2022-09-09T04:03:39;100433.09;;;28.38;43.34
47154;BME280;32907;41.412;2.164;2022-09-09T04:06:09;100421.88;;;28.31;43.28
47154;BME280;32907;41.412;2.164;2022-09-09T04:08:38;100137.63;;;26.43;43.43
47154;BME280;32907;41.412;2.164;2022-09-09T04:11:07;100422.53;;;28.28;42.89
47154;BME280;32907;41.412;2.164;2022-09-09T04:13:37;100183.88;;;26.78;43.49
47154;BME280;32907;41.412;2.164;2022-09-09T04:16:11;100161.66;;;26.59;43.29
47154;BME280;32907;41.412;2.164;2022-09-09T04:18:42;100440.56;;;28.37;42.84
47154;BME280;32907;41.412;2.164;2022-09-09T04:21:12;100440.56;;;28.37;43.07
47154;BME280;32907;41.412;2.164;2022-09-09T04:23:40;100395.34;;;28.14;43.02
47154;BME280;32907;41.412;2.164;2022-09-09T04:26:09;100414.28;;;28.28;43.33
47154;BME280;32907;41.412;2.164;2022-09-09T04:28:37;100419.59;;;28.33;43.42
47154;BME280;32907;41.412;2.164;2022-09-09T04:31:17;100396.63;;;28.17;42.58
47154;BME280;32907;41.412;2.164;2022-09-09T04:33:47;100445.75;;;28.39;42.62
47154;BME280;32907;41.412;2.164;2022-09-09T04:36:41;100436.56;;;28.35;42.10
47154;BME280;32907;41.412;2.164;2022-09-09T04:39:09;100207.03;;;26.77;43.01
47154;BME280;32907;41.412;2.164;2022-09-09T04:41:38;100442.81;;;28.32;42.78
47154;BME280;32907;41.412;2.164;2022-09-09T04:44:09;100268.16;;;27.19;42.37
47154;BME280;32907;41.412;2.164;2022-09-09T04:46:37;100267.00;;;27.20;42.54
47154;BME280;32907;41.412;2.164;2022-09-09T04:49:07;100431.53;;;28.25;42.33
47154;BME280;32907;41.412;2.164;2022-09-09T04:51:46;100450.13;;;28.28;42.63
47154;BME280;32907;41.412;2.164;2022-09-09T04:54:26;100233.97;;;26.84;42.72
47154;BME280;32907;41.412;2.164;2022-09-09T04:56:58;100450.84;;;28.25;42.68
47154;BME280;32907;41.412;2.164;2022-09-09T04:59:28;100381.78;;;27.81;42.92
47154;BME280;32907;41.412;2.164;2022-09-09T05:01:58;100410.44;;;28.04;42.74
47154;BME280;32907;41.412;2.164;2022-09-09T05:04:28;100426.75;;;28.09;42.71
47154;BME280;32907;41.412;2.164;2022-09-09T05:06:56;100401.50;;;27.95;42.75
47154;BME280;32907;41.412;2.164;2022-09-09T05:09:24;100430.75;;;28.12;42.40
47154;BME280;32907;41.412;2.164;2022-09-09T05:11:52;100463.47;;;28.26;42.21
47154;BME280;32907;41.412;2.164;2022-09-09T05:14:26;100407.97;;;27.87;42.18
47154;BME280;32907;41.412;2.164;2022-09-09T05:16:54;100369.88;;;27.52;41.07
47154;BME280;32907;41.412;2.164;2022-09-09T05:19:24;100471.16;;;28.20;41.31
47154;BME280;32907;41.412;2.164;2022-09-09T05:21:53;100471.88;;;28.17;41.46
47154;BME280;32907;41.412;2.164;2022-09-09T05:24:27;100278.91;;;26.88;41.47
47154;BME280;32907;41.412;2.164;2022-09-09T05:26:57;100323.78;;;27.13;41.12
47154;BME280;32907;41.412;2.164;2022-09-09T05:29:27;100452.50;;;27.89;41.47
47154;BME280;32907;41.412;2.164;2022-09-09T05:31:56;100252.88;;;26.61;41.39
47154;BME280;32907;41.412;2.164;2022-09-09T05:34:24;100307.22;;;26.88;40.97
47154;BME280;32907;41.412;2.164;2022-09-09T05:36:52;100476.59;;;28.04;42.33
47154;BME280;32907;41.412;2.164;2022-09-09T05:39:23;100480.94;;;28.05;42.15
47154;BME280;32907;41.412;2.164;2022-09-09T05:41:51;100459.63;;;27.78;41.43
47154;BME280;32907;41.412;2.164;2022-09-09T05:44:20;100462.84;;;27.80;40.90
47154;BME280;32907;41.412;2.164;2022-09-09T05:46:48;100374.13;;;27.13;41.52
47154;BME280;32907;41.412;2.164;2022-09-09T05:49:17;100494.19;;;28.00;41.07
47154;BME280;32907;41.412;2.164;2022-09-09T05:51:45;100492.34;;;28.04;41.14
47154;BME280;32907;41.412;2.164;2022-09-09T05:54:14;100496.13;;;27.99;41.01
47154;BME280;32907;41.412;2.164;2022-09-09T05:56:47;100495.56;;;27.94;41.05
47154;BME280;32907;41.412;2.164;2022-09-09T05:59:19;100494.97;;;27.88;40.53
47154;BME280;32907;41.412;2.164;2022-09-09T06:01:47;100421.97;;;27.33;40.68
47154;BME280;32907;41.412;2.164;2022-09-09T06:04:23;100502.91;;;27.77;40.29
47154;BME280;32907;41.412;2.164;2022-09-09T06:06:53;100462.81;;;27.43;40.65
47154;BME280;32907;41.412;2.164;2022-09-09T06:09:25;100365.78;;;26.64;40.95
47154;BME280;32907;41.412;2.164;2022-09-09T06:11:55;100275.94;;;26.23;40.71
47154;BME280;32907;41.412;2.164;2022-09-09T06:14:23;100506.13;;;27.79;40.38
47154;BME280;32907;41.412;2.164;2022-09-09T06:16:54;100352.25;;;26.71;40.27
47154;BME280;32907;41.412;2.164;2022-09-09T06:19:25;100503.94;;;27.85;40.38
47154;BME280;32907;41.412;2.164;2022-09-09T06:21:56;100479.59;;;27.63;39.48
47154;BME280;32907;41.412;2.164;2022-09-09T06:24:24;100498.09;;;27.86;39.73
47154;BME280;32907;41.412;2.164;2022-09-09T06:26:52;100473.88;;;27.68;39.53
47154;BME280;32907;41.412;2.164;2022-09-09T06:29:26;100428.16;;;27.42;39.80
47154;BME280;32907;41.412;2.164;2022-09-09T06:31:54;100455.81;;;27.58;39.72
47154;BME280;32907;41.412;2.164;2022-09-09T06:34:25;100476.94;;;27.66;39.55
47154;BME280;32907;41.412;2.164;2022-09-09T06:36:56;100244.50;;;26.12;39.70
47154;BME280;32907;41.412;2.164;2022-09-09T06:39:38;100460.53;;;27.57;39.61
47154;BME280;32907;41.412;2.164;2022-09-09T06:42:09;100507.63;;;27.77;39.31
47154;BME280;32907;41.412;2.164;2022-09-09T06:44:46;100403.59;;;27.13;39.54
47154;BME280;32907;41.412;2.164;2022-09-09T06:47:28;100233.75;;;26.07;39.40
47154;BME280;32907;41.412;2.164;2022-09-09T06:49:58;100169.63;;;25.49;39.59
47154;BME280;32907;41.412;2.164;2022-09-09T06:52:25;100321.88;;;26.56;39.52
47154;BME280;32907;41.412;2.164;2022-09-09T06:54:55;100477.19;;;27.73;39.21
47154;BME280;32907;41.412;2.164;2022-09-09T06:57:26;100406.69;;;27.23;39.09
47154;BME280;32907;41.412;2.164;2022-09-09T07:00:15;100384.63;;;26.99;39.24
47154;BME280;32907;41.412;2.164;2022-09-09T07:02:44;100379.81;;;26.96;39.12
47154;BME280;32907;41.412;2.164;2022-09-09T07:05:16;100459.03;;;27.60;39.67
47154;BME280;32907;41.412;2.164;2022-09-09T07:07:46;100524.03;;;27.98;39.01
47154;BME280;32907;41.412;2.164;2022-09-09T07:10:16;100381.94;;;27.11;39.07
47154;BME280;32907;41.412;2.164;2022-09-09T07:12:50;100516.09;;;27.96;38.99
47154;BME280;32907;41.412;2.164;2022-09-09T07:15:22;100243.06;;;26.27;39.50
47154;BME280;32907;41.412;2.164;2022-09-09T07:17:50;100523.22;;;27.97;39.58
47154;BME280;32907;41.412;2.164;2022-09-09T07:20:19;100491.19;;;27.80;39.97
47154;BME280;32907;41.412;2.164;2022-09-09T07:22:47;100467.31;;;27.72;40.06
47154;BME280;32907;41.412;2.164;2022-09-09T07:25:15;100386.28;;;27.12;39.64
47154;BME280;32907;41.412;2.164;2022-09-09T07:27:47;100466.97;;;27.74;40.24
47154;BME280;32907;41.412;2.164;2022-09-09T07:30:16;100356.56;;;27.06;40.21
47154;BME280;32907;41.412;2.164;2022-09-09T07:32:52;100505.09;;;27.96;40.14
47154;BME280;32907;41.412;2.164;2022-09-09T07:35:20;100446.34;;;27.68;40.71
47154;BME280;32907;41.412;2.164;2022-09-09T07:37:48;100325.41;;;26.68;40.25
47154;BME280;32907;41.412;2.164;2022-09-09T07:40:20;100383.53;;;27.12;40.86
47154;BME280;32907;41.412;2.164;2022-09-09T07:42:50;100189.28;;;25.92;41.16
47154;BME280;32907;41.412;2.164;2022-09-09T07:45:18;100253.50;;;26.33;41.12
47154;BME280;32907;41.412;2.164;2022-09-09T07:47:46;100542.75;;;28.17;41.28
47154;BME280;32907;41.412;2.164;2022-09-09T07:50:17;100486.38;;;27.77;41.14
47154;BME280;32907;41.412;2.164;2022-09-09T07:52:47;100332.91;;;26.80;41.17
47154;BME280;32907;41.412;2.164;2022-09-09T07:55:15;100563.75;;;28.21;41.11
47154;BME280;32907;41.412;2.164;2022-09-09T07:57:45;100215.22;;;26.16;41.07
47154;BME280;32907;41.412;2.164;2022-09-09T08:00:15;100496.50;;;27.85;41.23
47154;BME280;32907;41.412;2.164;2022-09-09T08:02:48;100252.97;;;26.40;41.10
47154;BME280;32907;41.412;2.164;2022-09-09T08:05:16;100346.31;;;26.94;41.20
47154;BME280;32907;41.412;2.164;2022-09-09T08:07:47;100475.47;;;27.81;41.29
47154;BME280;32907;41.412;2.164;2022-09-09T08:10:15;100227.13;;;26.20;41.64
47154;BME280;32907;41.412;2.164;2022-09-09T08:12:45;100349.41;;;26.80;41.75
47154;BME280;32907;41.412;2.164;2022-09-09T08:15:38;100284.97;;;26.57;41.75
47154;BME280;32907;41.412;2.164;2022-09-09T08:18:08;100228.50;;;26.26;42.01
47154;BME280;32907;41.412;2.164;2022-09-09T08:20:37;100254.22;;;26.42;41.86
47154;BME280;32907;41.412;2.164;2022-09-09T08:23:06;100558.63;;;28.32;42.03
47154;BME280;32907;41.412;2.164;2022-09-09T08:25:35;100270.00;;;26.33;42.26
47154;BME280;32907;41.412;2.164;2022-09-09T08:28:04;100285.41;;;26.59;42.54
47154;BME280;32907;41.412;2.164;2022-09-09T08:30:32;100552.63;;;28.30;42.53
47154;BME280;32907;41.412;2.164;2022-09-09T08:33:00;100384.56;;;27.20;42.70
47154;BME280;32907;41.412;2.164;2022-09-09T08:35:28;100211.06;;;26.10;42.95
47154;BME280;32907;41.412;2.164;2022-09-09T08:38:02;100456.84;;;27.66;43.14
47154;BME280;32907;41.412;2.164;2022-09-09T08:40:42;100459.16;;;27.64;43.25
47154;BME280;32907;41.412;2.164;2022-09-09T08:43:12;100451.34;;;27.66;43.27
47154;BME280;32907;41.412;2.164;2022-09-09T08:46:16;100442.53;;;27.60;43.45
47154;BME280;32907;41.412;2.164;2022-09-09T08:49:02;100538.94;;;28.21;43.55
47154;BME280;32907;41.412;2.164;2022-09-09T08:51:33;100435.28;;;27.55;43.13
47154;BME280;32907;41.412;2.164;2022-09-09T08:54:03;100363.47;;;27.12;43.45
47154;BME280;32907;41.412;2.164;2022-09-09T08:56:33;100296.66;;;26.66;43.36
47154;BME280;32907;41.412;2.164;2022-09-09T08:59:02;100544.59;;;28.25;43.50
47154;BME280;32907;41.412;2.164;2022-09-09T09:01:55;100548.25;;;28.29;43.76
47154;BME280;32907;41.412;2.164;2022-09-09T09:13:01;100300.06;;;26.63;44.16
47154;BME280;32907;41.412;2.164;2022-09-09T09:15:35;100497.41;;;27.77;43.92
47154;BME280;32907;41.412;2.164;2022-09-09T09:18:05;100429.19;;;27.38;44.17
47154;BME280;32907;41.412;2.164;2022-09-09T09:24:00;100264.78;;;26.40;44.72
47154;BME280;32907;41.412;2.164;2022-09-09T09:26:34;100499.91;;;27.82;44.75
47154;BME280;32907;41.412;2.164;2022-09-09T09:29:17;100501.19;;;27.85;45.01
47154;BME280;32907;41.412;2.164;2022-09-09T09:31:54;100293.97;;;26.45;44.83
47154;BME280;32907;41.412;2.164;2022-09-09T09:34:25;100320.16;;;26.63;44.67
47154;BME280;32907;41.412;2.164;2022-09-09T09:36:56;100635.34;;;28.54;44.83
47154;BME280;32907;41.412;2.164;2022-09-09T09:39:38;100615.22;;;28.54;45.30
47154;BME280;32907;41.412;2.164;2022-09-09T09:45:42;100442.16;;;27.49;45.65
47154;BME280;32907;41.412;2.164;2022-09-09T09:48:34;100611.09;;;28.60;45.63
47154;BME280;32907;41.412;2.164;2022-09-09T09:51:10;100296.66;;;26.66;46.34
47154;BME280;32907;41.412;2.164;2022-09-09T09:53:41;100437.91;;;27.40;46.64
47154;BME280;32907;41.412;2.164;2022-09-09T09:56:13;100588.91;;;28.56;47.32
47154;BME280;32907;41.412;2.164;2022-09-09T10:01:32;100605.66;;;28.76;49.02
47154;BME280;32907;41.412;2.164;2022-09-09T10:04:16;100599.41;;;28.79;48.75
47154;BME280;32907;41.412;2.164;2022-09-09T10:06:46;100482.56;;;28.06;48.69
47154;BME280;32907;41.412;2.164;2022-09-09T10:09:26;100566.13;;;28.59;49.08
47154;BME280;32907;41.412;2.164;2022-09-09T10:12:13;100343.72;;;27.22;48.83
47154;BME280;32907;41.412;2.164;2022-09-09T10:17:22;100609.31;;;28.92;48.87
47154;BME280;32907;41.412;2.164;2022-09-09T10:22:44;100434.25;;;27.72;49.32
47154;BME280;32907;41.412;2.164;2022-09-09T10:25:38;100546.16;;;28.50;49.52
47154;BME280;32907;41.412;2.164;2022-09-09T10:34:08;100614.13;;;28.95;50.28
47154;BME280;32907;41.412;2.164;2022-09-09T10:36:46;100517.81;;;28.37;49.63
47154;BME280;32907;41.412;2.164;2022-09-09T10:42:01;100608.28;;;28.96;49.96
47154;BME280;32907;41.412;2.164;2022-09-09T10:56:31;100560.94;;;28.70;50.38
47154;BME280;32907;41.412;2.164;2022-09-09T10:59:04;100602.03;;;28.87;49.98
47154;BME280;32907;41.412;2.164;2022-09-09T11:01:41;100603.09;;;28.95;50.11
47154;BME280;32907;41.412;2.164;2022-09-09T11:04:22;100571.16;;;28.82;49.96
47154;BME280;32907;41.412;2.164;2022-09-09T11:06:54;100598.03;;;28.97;49.54
47154;BME280;32907;41.412;2.164;2022-09-09T11:09:27;100320.44;;;27.07;49.63
47154;BME280;32907;41.412;2.164;2022-09-09T11:11:58;100295.22;;;27.05;49.72
47154;BME280;32907;41.412;2.164;2022-09-09T11:14:37;100480.56;;;28.31;49.49
47154;BME280;32907;41.412;2.164;2022-09-09T11:17:15;100534.22;;;28.46;49.21
47154;BME280;32907;41.412;2.164;2022-09-09T11:19:45;100357.03;;;27.44;49.16
47154;BME280;32907;41.412;2.164;2022-09-09T11:22:19;100581.13;;;28.86;48.85
47154;BME280;32907;41.412;2.164;2022-09-09T11:25:05;100601.69;;;29.01;48.76
47154;BME280;32907;41.412;2.164;2022-09-09T11:27:50;100592.25;;;29.02;49.15
47154;BME280;32907;41.412;2.164;2022-09-09T11:30:31;100465.78;;;28.24;49.11
47154;BME280;32907;41.412;2.164;2022-09-09T11:36:26;100606.97;;;29.06;48.67
47154;BME280;32907;41.412;2.164;2022-09-09T11:41:37;100479.09;;;28.22;48.50
47154;BME280;32907;41.412;2.164;2022-09-09T11:44:17;100586.06;;;28.93;48.53
47154;BME280;32907;41.412;2.164;2022-09-09T11:46:50;100498.41;;;28.34;48.46
47154;BME280;32907;41.412;2.164;2022-09-09T11:49:49;100549.22;;;28.61;48.64
47154;BME280;32907;41.412;2.164;2022-09-09T11:52:37;100599.84;;;29.05;48.30
47154;BME280;32907;41.412;2.164;2022-09-09T12:03:49;100342.69;;;27.39;49.05
47154;BME280;32907;41.412;2.164;2022-09-09T12:06:31;100309.44;;;27.07;48.50
47154;BME280;32907;41.412;2.164;2022-09-09T12:09:19;100615.69;;;29.08;48.68
47154;BME280;32907;41.412;2.164;2022-09-09T12:11:50;100611.69;;;29.06;48.65
47154;BME280;32907;41.412;2.164;2022-09-09T12:14:44;100617.09;;;29.02;48.36
47154;BME280;32907;41.412;2.164;2022-09-09T12:17:23;100566.72;;;28.65;48.71
47154;BME280;32907;41.412;2.164;2022-09-09T12:20:50;100634.38;;;28.99;48.46
47154;BME280;32907;41.412;2.164;2022-09-09T12:31:25;100558.44;;;28.65;48.58
47154;BME280;32907;41.412;2.164;2022-09-09T12:33:55;100613.88;;;29.00;48.59
47154;BME280;32907;41.412;2.164;2022-09-09T12:36:28;100597.31;;;29.00;48.42
47154;BME280;32907;41.412;2.164;2022-09-09T12:38:59;100563.81;;;28.74;48.82
47154;BME280;32907;41.412;2.164;2022-09-09T12:41:38;100604.44;;;29.01;48.46
47154;BME280;32907;41.412;2.164;2022-09-09T12:44:08;100601.31;;;29.03;48.44
47154;BME280;32907;41.412;2.164;2022-09-09T12:46:42;100609.28;;;29.04;48.69
47154;BME280;32907;41.412;2.164;2022-09-09T12:51:55;100499.28;;;28.38;48.61
47154;BME280;32907;41.412;2.164;2022-09-09T12:54:24;100516.84;;;28.58;48.44
47154;BME280;32907;41.412;2.164;2022-09-09T12:56:52;100611.09;;;29.12;48.85
47154;BME280;32907;41.412;2.164;2022-09-09T12:59:26;100602.44;;;29.14;48.52
47154;BME280;32907;41.412;2.164;2022-09-09T13:01:58;100599.34;;;29.15;48.73
47154;BME280;32907;41.412;2.164;2022-09-09T13:04:26;100600.94;;;29.16;48.71
47154;BME280;32907;41.412;2.164;2022-09-09T13:07:07;100326.03;;;27.47;48.93
47154;BME280;32907;41.412;2.164;2022-09-09T13:09:37;100568.00;;;28.95;48.63
47154;BME280;32907;41.412;2.164;2022-09-09T13:12:13;100400.84;;;27.86;48.42
47154;BME280;32907;41.412;2.164;2022-09-09T13:14:44;100600.56;;;29.18;49.23
47154;BME280;32907;41.412;2.164;2022-09-09T13:17:21;100570.63;;;29.04;48.69
47154;BME280;32907;41.412;2.164;2022-09-09T13:19:50;100532.75;;;28.77;48.39
47154;BME280;32907;41.412;2.164;2022-09-09T13:22:29;100600.06;;;29.12;48.80
47154;BME280;32907;41.412;2.164;2022-09-09T13:27:50;100559.63;;;28.92;49.24
47154;BME280;32907;41.412;2.164;2022-09-09T13:33:03;100588.53;;;29.10;49.02
47154;BME280;32907;41.412;2.164;2022-09-09T13:35:32;100588.53;;;29.10;49.29
47154;BME280;32907;41.412;2.164;2022-09-09T13:38:07;100587.38;;;29.11;49.06
47154;BME280;32907;41.412;2.164;2022-09-09T13:40:37;100575.44;;;29.07;49.48
47154;BME280;32907;41.412;2.164;2022-09-09T13:43:15;100564.91;;;28.97;49.32
47154;BME280;32907;41.412;2.164;2022-09-09T13:45:55;100582.56;;;29.08;49.51
47154;BME280;32907;41.412;2.164;2022-09-09T13:48:25;100443.06;;;28.02;49.40
47154;BME280;32907;41.412;2.164;2022-09-09T13:51:03;100446.94;;;28.13;49.49
47154;BME280;32907;41.412;2.164;2022-09-09T13:53:34;100544.50;;;28.74;49.69
47154;BME280;32907;41.412;2.164;2022-09-09T13:56:03;100488.25;;;28.38;49.14
47154;BME280;32907;41.412;2.164;2022-09-09T13:58:31;100552.50;;;28.79;49.37
47154;BME280;32907;41.412;2.164;2022-09-09T14:00:58;100388.69;;;27.75;49.37
47154;BME280;32907;41.412;2.164;2022-09-09T14:03:26;100579.25;;;29.03;49.20
47154;BME280;32907;41.412;2.164;2022-09-09T14:05:54;100485.41;;;28.34;49.58
47154;BME280;32907;41.412;2.164;2022-09-09T14:08:25;100579.03;;;28.95;49.09
47154;BME280;32907;41.412;2.164;2022-09-09T14:10:57;100303.94;;;27.07;49.02
47154;BME280;32907;41.412;2.164;2022-09-09T14:13:26;100365.63;;;27.55;48.96
47154;BME280;32907;41.412;2.164;2022-09-09T14:15:54;100565.59;;;28.94;49.04
47154;BME280;32907;41.412;2.164;2022-09-09T14:18:22;100271.84;;;27.11;49.23
47154;BME280;32907;41.412;2.164;2022-09-09T14:20:51;100412.09;;;27.81;49.38
47154;BME280;32907;41.412;2.164;2022-09-09T14:23:19;100583.97;;;29.02;49.49
47154;BME280;32907;41.412;2.164;2022-09-09T14:25:46;100555.53;;;28.74;49.19
47154;BME280;32907;41.412;2.164;2022-09-09T14:28:15;100607.56;;;29.00;49.53
47154;BME280;32907;41.412;2.164;2022-09-09T14:30:49;100605.16;;;28.98;49.23
47154;BME280;32907;41.412;2.164;2022-09-09T14:33:19;100607.56;;;29.00;49.58
47154;BME280;32907;41.412;2.164;2022-09-09T14:35:47;100548.66;;;28.55;49.63
47154;BME280;32907;41.412;2.164;2022-09-09T14:38:17;100537.19;;;28.53;49.59
47154;BME280;32907;41.412;2.164;2022-09-09T14:40:45;100529.25;;;28.52;49.06
47154;BME280;32907;41.412;2.164;2022-09-09T14:43:14;100609.06;;;28.97;49.66
47154;BME280;32907;41.412;2.164;2022-09-09T14:45:42;100618.97;;;28.98;49.75
47154;BME280;32907;41.412;2.164;2022-09-09T14:48:11;100642.19;;;28.97;49.41
47154;BME280;32907;41.412;2.164;2022-09-09T14:50:38;100594.53;;;28.72;49.51
47154;BME280;32907;41.412;2.164;2022-09-09T14:53:08;100629.56;;;28.96;49.64
47154;BME280;32907;41.412;2.164;2022-09-09T14:55:37;100594.38;;;28.81;49.72
47154;BME280;32907;41.412;2.164;2022-09-09T14:58:05;100628.63;;;28.92;50.14
47154;BME280;32907;41.412;2.164;2022-09-09T15:00:33;100621.50;;;28.91;49.97
47154;BME280;32907;41.412;2.164;2022-09-09T15:03:02;100541.94;;;28.40;50.35
47154;BME280;32907;41.412;2.164;2022-09-09T15:05:30;100582.19;;;28.69;50.28
47154;BME280;32907;41.412;2.164;2022-09-09T15:07:59;100611.63;;;28.78;50.51
47154;BME280;32907;41.412;2.164;2022-09-09T15:10:27;100559.50;;;28.48;50.92
47154;BME280;32907;41.412;2.164;2022-09-09T15:12:54;100625.44;;;28.90;50.79
47154;BME280;32907;41.412;2.164;2022-09-09T15:15:22;100629.31;;;28.89;50.92
47154;BME280;32907;41.412;2.164;2022-09-09T15:17:50;100619.91;;;28.90;50.61
47154;BME280;32907;41.412;2.164;2022-09-09T15:20:17;100624.94;;;28.88;51.05